sensor_id;sensor_type;location;lat;lon;timestamp;P1;durP1;ratioP1;P2;durP2;ratioP2
65009;SDS011;51556;50.002;22.014;2023-02-01T00:00:57;4.50;;;2.20;;
65009;SDS011;51556;50.002;22.014;2023-02-01T00:03:32;5.70;;;2.50;;
65009;SDS011;51556;50.002;22.014;2023-02-01T00:05:58;4.90;;;2.20;;
65009;SDS011;51556;50.002;22.014;2023-02-01T00:08:25;3.80;;;1.80;;
65009;SDS011;51556;50.002;22.014;2023-02-01T00:10:58;3.60;;;2.10;;
65009;SDS011;51556;50.002;22.014;2023-02-01T00:13:25;4.90;;;2.20;;
65009;SDS011;51556;50.002;22.014;2023-02-01T00:15:52;4.30;;;2.30;;
65009;SDS011;51556;50.002;22.014;2023-02-01T00:18:18;4.50;;;2.50;;
65009;SDS011;51556;50.002;22.014;2023-02-01T00:20:46;5.00;;;2.40;;
65009;SDS011;51556;50.002;22.014;2023-02-01T00:23:12;7.00;;;3.00;;
65009;SDS011;51556;50.002;22.014;2023-02-01T00:25:37;4.50;;;2.90;;
65009;SDS011;51556;50.002;22.014;2023-02-01T00:28:03;4.80;;;2.30;;
65009;SDS011;51556;50.002;22.014;2023-02-01T00:30:28;4.00;;;2.20;;
65009;SDS011;51556;50.002;22.014;2023-02-01T00:32:54;5.50;;;2.40;;
65009;SDS011;51556;50.002;22.014;2023-02-01T00:35:20;3.50;;;2.20;;
65009;SDS011;51556;50.002;22.014;2023-02-01T00:37:45;5.30;;;2.60;;
65009;SDS011;51556;50.002;22.014;2023-02-01T00:40:11;3.20;;;1.90;;
65009;SDS011;51556;50.002;22.014;2023-02-01T00:42:37;4.80;;;2.20;;
65009;SDS011;51556;50.002;22.014;2023-02-01T00:45:02;3.50;;;1.80;;
65009;SDS011;51556;50.002;22.014;2023-02-01T00:47:28;3.60;;;2.10;;
65009;SDS011;51556;50.002;22.014;2023-02-01T00:49:55;3.90;;;2.10;;
65009;SDS011;51556;50.002;22.014;2023-02-01T00:52:20;4.20;;;2.30;;
65009;SDS011;51556;50.002;22.014;2023-02-01T00:54:46;4.90;;;2.50;;
65009;SDS011;51556;50.002;22.014;2023-02-01T00:57:12;3.70;;;1.90;;
65009;SDS011;51556;50.002;22.014;2023-02-01T00:59:37;2.50;;;1.50;;
65009;SDS011;51556;50.002;22.014;2023-02-01T01:02:03;2.80;;;1.50;;
65009;SDS011;51556;50.002;22.014;2023-02-01T01:04:28;4.50;;;2.20;;
65009;SDS011;51556;50.002;22.014;2023-02-01T01:06:54;4.80;;;1.90;;
65009;SDS011;51556;50.002;22.014;2023-02-01T01:09:19;3.40;;;1.80;;
65009;SDS011;51556;50.002;22.014;2023-02-01T01:11:45;3.20;;;2.40;;
65009;SDS011;51556;50.002;22.014;2023-02-01T01:14:10;3.80;;;2.30;;
65009;SDS011;51556;50.002;22.014;2023-02-01T01:16:36;4.70;;;2.30;;
65009;SDS011;51556;50.002;22.014;2023-02-01T01:19:02;4.70;;;2.40;;
65009;SDS011;51556;50.002;22.014;2023-02-01T01:21:28;3.00;;;2.00;;
65009;SDS011;51556;50.002;22.014;2023-02-01T01:23:55;2.60;;;1.90;;
65009;SDS011;51556;50.002;22.014;2023-02-01T01:26:22;4.40;;;2.20;;
65009;SDS011;51556;50.002;22.014;2023-02-01T01:28:49;2.80;;;1.60;;
65009;SDS011;51556;50.002;22.014;2023-02-01T01:31:16;3.20;;;1.70;;
65009;SDS011;51556;50.002;22.014;2023-02-01T01:33:43;3.00;;;1.80;;
65009;SDS011;51556;50.002;22.014;2023-02-01T01:36:12;1.80;;;1.40;;
65009;SDS011;51556;50.002;22.014;2023-02-01T01:38:38;4.20;;;2.30;;
65009;SDS011;51556;50.002;22.014;2023-02-01T01:41:04;3.60;;;2.10;;
65009;SDS011;51556;50.002;22.014;2023-02-01T01:43:47;3.00;;;1.70;;
65009;SDS011;51556;50.002;22.014;2023-02-01T01:46:18;3.50;;;2.00;;
65009;SDS011;51556;50.002;22.014;2023-02-01T01:48:45;4.00;;;1.80;;
65009;SDS011;51556;50.002;22.014;2023-02-01T01:51:12;3.10;;;1.90;;
65009;SDS011;51556;50.002;22.014;2023-02-01T01:53:43;3.70;;;2.30;;
65009;SDS011;51556;50.002;22.014;2023-02-01T01:56:13;4.30;;;2.10;;
65009;SDS011;51556;50.002;22.014;2023-02-01T01:58:39;2.80;;;2.00;;
65009;SDS011;51556;50.002;22.014;2023-02-01T02:01:05;2.90;;;1.90;;
65009;SDS011;51556;50.002;22.014;2023-02-01T02:03:43;4.90;;;2.00;;
65009;SDS011;51556;50.002;22.014;2023-02-01T02:06:18;4.40;;;2.30;;
65009;SDS011;51556;50.002;22.014;2023-02-01T02:08:51;3.20;;;1.40;;
65009;SDS011;51556;50.002;22.014;2023-02-01T02:11:17;4.50;;;2.00;;
65009;SDS011;51556;50.002;22.014;2023-02-01T02:13:44;3.60;;;1.80;;
65009;SDS011;51556;50.002;22.014;2023-02-01T02:21:18;3.00;;;1.80;;
65009;SDS011;51556;50.002;22.014;2023-02-01T02:26:26;3.10;;;1.90;;
65009;SDS011;51556;50.002;22.014;2023-02-01T02:34:54;2.80;;;2.20;;
65009;SDS011;51556;50.002;22.014;2023-02-01T02:37:38;3.70;;;2.00;;
65009;SDS011;51556;50.002;22.014;2023-02-01T02:45:42;2.10;;;1.60;;
65009;SDS011;51556;50.002;22.014;2023-02-01T02:51:28;2.40;;;1.60;;
65009;SDS011;51556;50.002;22.014;2023-02-01T02:54:18;3.40;;;1.50;;
65009;SDS011;51556;50.002;22.014;2023-02-01T02:57:07;3.40;;;1.40;;
65009;SDS011;51556;50.002;22.014;2023-02-01T02:59:57;2.10;;;1.10;;
65009;SDS011;51556;50.002;22.014;2023-02-01T03:02:42;5.20;;;1.70;;
65009;SDS011;51556;50.002;22.014;2023-02-01T03:05:35;1.50;;;1.30;;
65009;SDS011;51556;50.002;22.014;2023-02-01T03:08:03;8.00;;;1.80;;
65009;SDS011;51556;50.002;22.014;2023-02-01T03:21:57;4.90;;;1.90;;
65009;SDS011;51556;50.002;22.014;2023-02-01T03:24:37;5.20;;;2.00;;
65009;SDS011;51556;50.002;22.014;2023-02-01T03:32:31;4.50;;;2.60;;
65009;SDS011;51556;50.002;22.014;2023-02-01T03:35:18;4.50;;;1.90;;
65009;SDS011;51556;50.002;22.014;2023-02-01T03:37:52;5.50;;;1.60;;
65009;SDS011;51556;50.002;22.014;2023-02-01T03:40:25;5.00;;;1.80;;
65009;SDS011;51556;50.002;22.014;2023-02-01T03:42:54;6.10;;;1.90;;
65009;SDS011;51556;50.002;22.014;2023-02-01T03:45:24;4.50;;;2.10;;
65009;SDS011;51556;50.002;22.014;2023-02-01T03:50:22;3.70;;;1.50;;
65009;SDS011;51556;50.002;22.014;2023-02-01T03:52:58;4.20;;;1.80;;
65009;SDS011;51556;50.002;22.014;2023-02-01T03:55:27;3.60;;;1.60;;
65009;SDS011;51556;50.002;22.014;2023-02-01T03:58:06;3.70;;;1.60;;
65009;SDS011;51556;50.002;22.014;2023-02-01T04:00:37;3.30;;;1.20;;
65009;SDS011;51556;50.002;22.014;2023-02-01T04:03:04;2.00;;;1.00;;
65009;SDS011;51556;50.002;22.014;2023-02-01T04:05:30;4.90;;;1.40;;
65009;SDS011;51556;50.002;22.014;2023-02-01T04:07:56;5.00;;;2.00;;
65009;SDS011;51556;50.002;22.014;2023-02-01T04:10:22;4.20;;;1.50;;
65009;SDS011;51556;50.002;22.014;2023-02-01T04:12:48;6.20;;;2.00;;
65009;SDS011;51556;50.002;22.014;2023-02-01T04:15:14;3.60;;;1.50;;
65009;SDS011;51556;50.002;22.014;2023-02-01T04:17:39;5.00;;;2.00;;
65009;SDS011;51556;50.002;22.014;2023-02-01T04:20:05;4.80;;;1.90;;
65009;SDS011;51556;50.002;22.014;2023-02-01T04:22:31;4.90;;;2.00;;
65009;SDS011;51556;50.002;22.014;2023-02-01T04:24:56;4.00;;;2.20;;
65009;SDS011;51556;50.002;22.014;2023-02-01T04:27:22;7.20;;;2.20;;
65009;SDS011;51556;50.002;22.014;2023-02-01T04:29:48;4.70;;;2.20;;
65009;SDS011;51556;50.002;22.014;2023-02-01T04:32:16;6.30;;;2.20;;
65009;SDS011;51556;50.002;22.014;2023-02-01T04:34:44;5.50;;;2.40;;
65009;SDS011;51556;50.002;22.014;2023-02-01T04:37:10;3.50;;;1.70;;
65009;SDS011;51556;50.002;22.014;2023-02-01T04:39:35;5.20;;;1.90;;
65009;SDS011;51556;50.002;22.014;2023-02-01T04:42:01;5.90;;;2.10;;
65009;SDS011;51556;50.002;22.014;2023-02-01T04:44:27;4.50;;;1.90;;
65009;SDS011;51556;50.002;22.014;2023-02-01T04:46:52;5.50;;;2.20;;
65009;SDS011;51556;50.002;22.014;2023-02-01T04:49:18;6.00;;;1.90;;
65009;SDS011;51556;50.002;22.014;2023-02-01T04:51:43;3.30;;;1.50;;
65009;SDS011;51556;50.002;22.014;2023-02-01T04:54:09;5.80;;;1.70;;
65009;SDS011;51556;50.002;22.014;2023-02-01T04:56:36;7.50;;;1.90;;
65009;SDS011;51556;50.002;22.014;2023-02-01T04:59:02;6.50;;;1.70;;
65009;SDS011;51556;50.002;22.014;2023-02-01T05:01:28;5.30;;;1.60;;
65009;SDS011;51556;50.002;22.014;2023-02-01T05:03:54;8.50;;;2.20;;
65009;SDS011;51556;50.002;22.014;2023-02-01T05:06:19;6.40;;;1.40;;
65009;SDS011;51556;50.002;22.014;2023-02-01T05:08:45;7.50;;;1.60;;
65009;SDS011;51556;50.002;22.014;2023-02-01T05:11:11;5.70;;;1.30;;
65009;SDS011;51556;50.002;22.014;2023-02-01T05:13:56;8.10;;;1.70;;
65009;SDS011;51556;50.002;22.014;2023-02-01T05:16:22;6.40;;;2.10;;
65009;SDS011;51556;50.002;22.014;2023-02-01T05:18:48;6.30;;;1.50;;
65009;SDS011;51556;50.002;22.014;2023-02-01T05:21:13;8.00;;;1.60;;
65009;SDS011;51556;50.002;22.014;2023-02-01T05:23:39;6.70;;;2.00;;
65009;SDS011;51556;50.002;22.014;2023-02-01T05:26:23;7.40;;;1.60;;
65009;SDS011;51556;50.002;22.014;2023-02-01T05:28:49;6.50;;;1.50;;
65009;SDS011;51556;50.002;22.014;2023-02-01T05:31:14;6.70;;;1.00;;
65009;SDS011;51556;50.002;22.014;2023-02-01T05:33:40;6.00;;;1.40;;
65009;SDS011;51556;50.002;22.014;2023-02-01T05:36:05;6.30;;;1.60;;
65009;SDS011;51556;50.002;22.014;2023-02-01T05:38:31;6.10;;;1.40;;
65009;SDS011;51556;50.002;22.014;2023-02-01T05:40:57;4.30;;;1.80;;
65009;SDS011;51556;50.002;22.014;2023-02-01T05:43:22;7.30;;;1.80;;
65009;SDS011;51556;50.002;22.014;2023-02-01T05:45:48;8.00;;;1.30;;
65009;SDS011;51556;50.002;22.014;2023-02-01T05:48:13;7.00;;;1.30;;
65009;SDS011;51556;50.002;22.014;2023-02-01T05:50:39;5.80;;;1.40;;
65009;SDS011;51556;50.002;22.014;2023-02-01T05:53:05;7.00;;;1.80;;
65009;SDS011;51556;50.002;22.014;2023-02-01T05:55:31;5.60;;;1.50;;
65009;SDS011;51556;50.002;22.014;2023-02-01T05:57:56;7.10;;;1.30;;
65009;SDS011;51556;50.002;22.014;2023-02-01T06:00:22;6.60;;;2.00;;
65009;SDS011;51556;50.002;22.014;2023-02-01T06:02:48;7.30;;;1.60;;
65009;SDS011;51556;50.002;22.014;2023-02-01T06:05:13;7.50;;;1.50;;
65009;SDS011;51556;50.002;22.014;2023-02-01T06:07:39;5.30;;;1.40;;
65009;SDS011;51556;50.002;22.014;2023-02-01T06:10:04;6.10;;;1.40;;
65009;SDS011;51556;50.002;22.014;2023-02-01T06:12:30;5.40;;;1.40;;
65009;SDS011;51556;50.002;22.014;2023-02-01T06:14:56;3.80;;;1.30;;
65009;SDS011;51556;50.002;22.014;2023-02-01T06:17:21;6.30;;;2.00;;
65009;SDS011;51556;50.002;22.014;2023-02-01T06:19:46;8.90;;;2.70;;
65009;SDS011;51556;50.002;22.014;2023-02-01T06:22:13;6.60;;;1.90;;
65009;SDS011;51556;50.002;22.014;2023-02-01T06:24:39;9.60;;;3.30;;
65009;SDS011;51556;50.002;22.014;2023-02-01T06:27:06;9.40;;;2.10;;
65009;SDS011;51556;50.002;22.014;2023-02-01T06:29:32;3.50;;;1.70;;
65009;SDS011;51556;50.002;22.014;2023-02-01T06:31:58;10.30;;;3.20;;
65009;SDS011;51556;50.002;22.014;2023-02-01T06:34:24;9.60;;;2.80;;
65009;SDS011;51556;50.002;22.014;2023-02-01T06:36:49;3.90;;;1.50;;
65009;SDS011;51556;50.002;22.014;2023-02-01T06:39:15;10.90;;;1.70;;
65009;SDS011;51556;50.002;22.014;2023-02-01T06:41:41;6.90;;;1.40;;
65009;SDS011;51556;50.002;22.014;2023-02-01T06:44:16;5.90;;;1.80;;
65009;SDS011;51556;50.002;22.014;2023-02-01T06:46:41;7.50;;;2.90;;
65009;SDS011;51556;50.002;22.014;2023-02-01T06:49:07;4.40;;;1.70;;
65009;SDS011;51556;50.002;22.014;2023-02-01T06:51:33;12.50;;;2.20;;
65009;SDS011;51556;50.002;22.014;2023-02-01T06:53:59;5.40;;;1.60;;
65009;SDS011;51556;50.002;22.014;2023-02-01T06:56:26;7.00;;;1.50;;
65009;SDS011;51556;50.002;22.014;2023-02-01T06:58:52;4.50;;;1.80;;
65009;SDS011;51556;50.002;22.014;2023-02-01T07:01:18;7.00;;;3.30;;
65009;SDS011;51556;50.002;22.014;2023-02-01T07:03:46;7.40;;;2.10;;
65009;SDS011;51556;50.002;22.014;2023-02-01T07:06:12;18.50;;;8.00;;
65009;SDS011;51556;50.002;22.014;2023-02-01T07:08:38;8.40;;;3.30;;
65009;SDS011;51556;50.002;22.014;2023-02-01T07:11:08;9.20;;;3.90;;
65009;SDS011;51556;50.002;22.014;2023-02-01T07:13:35;5.80;;;1.90;;
65009;SDS011;51556;50.002;22.014;2023-02-01T07:16:01;10.80;;;2.50;;
65009;SDS011;51556;50.002;22.014;2023-02-01T07:18:29;9.70;;;2.70;;
65009;SDS011;51556;50.002;22.014;2023-02-01T07:20:56;8.50;;;1.80;;
65009;SDS011;51556;50.002;22.014;2023-02-01T07:23:22;9.90;;;2.20;;
65009;SDS011;51556;50.002;22.014;2023-02-01T07:25:48;5.50;;;2.10;;
65009;SDS011;51556;50.002;22.014;2023-02-01T07:28:14;6.20;;;2.10;;
65009;SDS011;51556;50.002;22.014;2023-02-01T07:30:39;7.80;;;1.90;;
65009;SDS011;51556;50.002;22.014;2023-02-01T07:33:06;8.30;;;2.80;;
65009;SDS011;51556;50.002;22.014;2023-02-01T07:35:32;8.40;;;2.20;;
65009;SDS011;51556;50.002;22.014;2023-02-01T07:37:57;6.50;;;2.60;;
65009;SDS011;51556;50.002;22.014;2023-02-01T07:40:24;7.50;;;3.10;;
65009;SDS011;51556;50.002;22.014;2023-02-01T07:42:56;12.40;;;5.50;;
65009;SDS011;51556;50.002;22.014;2023-02-01T07:45:23;13.60;;;5.80;;
65009;SDS011;51556;50.002;22.014;2023-02-01T07:47:48;9.10;;;2.80;;
65009;SDS011;51556;50.002;22.014;2023-02-01T07:50:16;10.80;;;6.70;;
65009;SDS011;51556;50.002;22.014;2023-02-01T07:52:41;8.00;;;4.40;;
65009;SDS011;51556;50.002;22.014;2023-02-01T07:55:07;10.00;;;3.50;;
65009;SDS011;51556;50.002;22.014;2023-02-01T07:57:33;8.10;;;3.00;;
65009;SDS011;51556;50.002;22.014;2023-02-01T07:59:58;9.60;;;3.50;;
65009;SDS011;51556;50.002;22.014;2023-02-01T08:02:42;8.90;;;2.90;;
65009;SDS011;51556;50.002;22.014;2023-02-01T08:05:08;11.40;;;4.50;;
65009;SDS011;51556;50.002;22.014;2023-02-01T08:07:34;9.40;;;4.30;;
65009;SDS011;51556;50.002;22.014;2023-02-01T08:09:59;7.10;;;2.90;;
65009;SDS011;51556;50.002;22.014;2023-02-01T08:12:25;7.80;;;3.40;;
65009;SDS011;51556;50.002;22.014;2023-02-01T08:14:52;20.80;;;10.90;;
65009;SDS011;51556;50.002;22.014;2023-02-01T08:17:19;6.20;;;3.10;;
65009;SDS011;51556;50.002;22.014;2023-02-01T08:19:44;9.10;;;3.50;;
65009;SDS011;51556;50.002;22.014;2023-02-01T08:22:10;12.40;;;3.50;;
65009;SDS011;51556;50.002;22.014;2023-02-01T08:24:36;14.80;;;4.70;;
65009;SDS011;51556;50.002;22.014;2023-02-01T08:27:04;9.10;;;4.30;;
65009;SDS011;51556;50.002;22.014;2023-02-01T08:29:30;10.50;;;6.30;;
65009;SDS011;51556;50.002;22.014;2023-02-01T08:31:55;7.90;;;2.70;;
65009;SDS011;51556;50.002;22.014;2023-02-01T08:34:21;10.20;;;4.10;;
65009;SDS011;51556;50.002;22.014;2023-02-01T08:36:46;12.90;;;4.10;;
65009;SDS011;51556;50.002;22.014;2023-02-01T08:39:12;11.50;;;5.40;;
65009;SDS011;51556;50.002;22.014;2023-02-01T08:41:38;5.80;;;2.40;;
65009;SDS011;51556;50.002;22.014;2023-02-01T08:44:03;8.50;;;3.20;;
65009;SDS011;51556;50.002;22.014;2023-02-01T08:46:29;12.50;;;4.00;;
65009;SDS011;51556;50.002;22.014;2023-02-01T08:48:55;27.50;;;12.40;;
65009;SDS011;51556;50.002;22.014;2023-02-01T08:51:21;10.70;;;3.90;;
65009;SDS011;51556;50.002;22.014;2023-02-01T08:53:48;15.80;;;3.90;;
65009;SDS011;51556;50.002;22.014;2023-02-01T08:56:14;16.60;;;3.60;;
65009;SDS011;51556;50.002;22.014;2023-02-01T08:58:41;14.40;;;3.70;;
65009;SDS011;51556;50.002;22.014;2023-02-01T09:01:10;11.30;;;5.10;;
65009;SDS011;51556;50.002;22.014;2023-02-01T09:03:38;8.60;;;3.00;;
65009;SDS011;51556;50.002;22.014;2023-02-01T09:06:05;9.80;;;3.10;;
65009;SDS011;51556;50.002;22.014;2023-02-01T09:08:32;8.40;;;3.40;;
65009;SDS011;51556;50.002;22.014;2023-02-01T09:10:59;10.90;;;2.90;;
65009;SDS011;51556;50.002;22.014;2023-02-01T09:13:26;10.60;;;3.50;;
65009;SDS011;51556;50.002;22.014;2023-02-01T09:15:55;7.10;;;2.60;;
65009;SDS011;51556;50.002;22.014;2023-02-01T09:18:20;8.50;;;2.80;;
65009;SDS011;51556;50.002;22.014;2023-02-01T09:20:46;8.40;;;2.50;;
65009;SDS011;51556;50.002;22.014;2023-02-01T09:23:11;10.70;;;3.10;;
65009;SDS011;51556;50.002;22.014;2023-02-01T09:25:37;9.80;;;2.70;;
65009;SDS011;51556;50.002;22.014;2023-02-01T09:28:03;12.00;;;3.00;;
65009;SDS011;51556;50.002;22.014;2023-02-01T09:30:31;11.00;;;3.10;;
65009;SDS011;51556;50.002;22.014;2023-02-01T09:33:00;9.20;;;3.10;;
65009;SDS011;51556;50.002;22.014;2023-02-01T09:35:26;10.50;;;3.20;;
65009;SDS011;51556;50.002;22.014;2023-02-01T09:37:52;8.70;;;2.90;;
65009;SDS011;51556;50.002;22.014;2023-02-01T09:40:18;6.30;;;3.00;;
65009;SDS011;51556;50.002;22.014;2023-02-01T09:48:32;11.30;;;3.60;;
65009;SDS011;51556;50.002;22.014;2023-02-01T09:51:02;10.80;;;3.10;;
65009;SDS011;51556;50.002;22.014;2023-02-01T09:56:04;6.80;;;2.40;;
65009;SDS011;51556;50.002;22.014;2023-02-01T10:01:16;8.90;;;3.30;;
65009;SDS011;51556;50.002;22.014;2023-02-01T10:03:46;12.10;;;3.70;;
65009;SDS011;51556;50.002;22.014;2023-02-01T10:11:28;12.00;;;3.90;;
65009;SDS011;51556;50.002;22.014;2023-02-01T10:17:16;7.70;;;2.10;;
65009;SDS011;51556;50.002;22.014;2023-02-01T10:22:32;13.70;;;4.10;;
65009;SDS011;51556;50.002;22.014;2023-02-01T10:25:21;12.70;;;4.20;;
65009;SDS011;51556;50.002;22.014;2023-02-01T10:27:51;11.30;;;3.00;;
65009;SDS011;51556;50.002;22.014;2023-02-01T10:30:21;13.20;;;4.00;;
65009;SDS011;51556;50.002;22.014;2023-02-01T10:32:54;8.80;;;3.00;;
65009;SDS011;51556;50.002;22.014;2023-02-01T10:35:27;13.70;;;3.70;;
65009;SDS011;51556;50.002;22.014;2023-02-01T10:37:58;8.80;;;2.60;;
65009;SDS011;51556;50.002;22.014;2023-02-01T10:40:27;12.30;;;3.60;;
65009;SDS011;51556;50.002;22.014;2023-02-01T10:42:54;13.10;;;4.00;;
65009;SDS011;51556;50.002;22.014;2023-02-01T10:45:25;9.50;;;3.20;;
65009;SDS011;51556;50.002;22.014;2023-02-01T10:47:53;10.00;;;2.50;;
65009;SDS011;51556;50.002;22.014;2023-02-01T10:53:52;5.70;;;2.60;;
65009;SDS011;51556;50.002;22.014;2023-02-01T10:56:18;9.70;;;2.80;;
65009;SDS011;51556;50.002;22.014;2023-02-01T10:58:47;12.20;;;2.90;;
65009;SDS011;51556;50.002;22.014;2023-02-01T11:04:05;9.60;;;2.10;;
65009;SDS011;51556;50.002;22.014;2023-02-01T11:06:41;11.20;;;3.40;;
65009;SDS011;51556;50.002;22.014;2023-02-01T11:16:52;15.40;;;3.60;;
65009;SDS011;51556;50.002;22.014;2023-02-01T11:19:20;8.50;;;3.40;;
65009;SDS011;51556;50.002;22.014;2023-02-01T11:21:50;7.70;;;3.20;;
65009;SDS011;51556;50.002;22.014;2023-02-01T11:24:20;11.40;;;3.00;;
65009;SDS011;51556;50.002;22.014;2023-02-01T11:26:47;8.10;;;2.90;;
65009;SDS011;51556;50.002;22.014;2023-02-01T11:29:13;6.80;;;2.70;;
65009;SDS011;51556;50.002;22.014;2023-02-01T11:31:45;8.70;;;3.00;;
65009;SDS011;51556;50.002;22.014;2023-02-01T11:34:12;7.60;;;3.10;;
65009;SDS011;51556;50.002;22.014;2023-02-01T11:36:41;12.40;;;2.90;;
65009;SDS011;51556;50.002;22.014;2023-02-01T11:44:21;7.20;;;2.80;;
65009;SDS011;51556;50.002;22.014;2023-02-01T11:46:51;7.50;;;2.30;;
65009;SDS011;51556;50.002;22.014;2023-02-01T11:49:23;8.40;;;2.50;;
65009;SDS011;51556;50.002;22.014;2023-02-01T12:04:53;9.30;;;2.80;;
65009;SDS011;51556;50.002;22.014;2023-02-01T12:07:36;7.40;;;2.50;;
65009;SDS011;51556;50.002;22.014;2023-02-01T12:10:18;8.30;;;2.40;;
65009;SDS011;51556;50.002;22.014;2023-02-01T12:13:12;9.90;;;2.80;;
65009;SDS011;51556;50.002;22.014;2023-02-01T12:18:48;8.10;;;2.90;;
65009;SDS011;51556;50.002;22.014;2023-02-01T12:21:26;9.90;;;2.40;;
65009;SDS011;51556;50.002;22.014;2023-02-01T12:26:52;9.10;;;2.50;;
65009;SDS011;51556;50.002;22.014;2023-02-01T12:35:12;10.60;;;3.50;;
65009;SDS011;51556;50.002;22.014;2023-02-01T12:43:05;8.40;;;3.00;;
65009;SDS011;51556;50.002;22.014;2023-02-01T12:45:40;10.30;;;3.70;;
65009;SDS011;51556;50.002;22.014;2023-02-01T12:48:18;9.90;;;3.40;;
65009;SDS011;51556;50.002;22.014;2023-02-01T12:50:52;9.60;;;3.50;;
65009;SDS011;51556;50.002;22.014;2023-02-01T12:55:53;9.90;;;3.50;;
65009;SDS011;51556;50.002;22.014;2023-02-01T13:01:00;10.90;;;4.10;;
65009;SDS011;51556;50.002;22.014;2023-02-01T13:03:38;13.30;;;4.50;;
65009;SDS011;51556;50.002;22.014;2023-02-01T13:06:18;9.40;;;3.10;;
65009;SDS011;51556;50.002;22.014;2023-02-01T13:11:44;12.80;;;4.70;;
65009;SDS011;51556;50.002;22.014;2023-02-01T13:14:25;10.30;;;3.70;;
65009;SDS011;51556;50.002;22.014;2023-02-01T13:16:54;12.70;;;3.80;;
65009;SDS011;51556;50.002;22.014;2023-02-01T13:22:31;10.70;;;3.90;;
65009;SDS011;51556;50.002;22.014;2023-02-01T13:25:01;10.40;;;4.40;;
65009;SDS011;51556;50.002;22.014;2023-02-01T13:27:28;11.60;;;3.70;;
65009;SDS011;51556;50.002;22.014;2023-02-01T13:40:23;8.30;;;3.80;;
65009;SDS011;51556;50.002;22.014;2023-02-01T13:45:56;8.90;;;3.20;;
65009;SDS011;51556;50.002;22.014;2023-02-01T13:51:05;8.90;;;3.20;;
65009;SDS011;51556;50.002;22.014;2023-02-01T13:53:32;6.90;;;3.00;;
65009;SDS011;51556;50.002;22.014;2023-02-01T13:56:19;8.20;;;3.60;;
65009;SDS011;51556;50.002;22.014;2023-02-01T13:58:49;8.30;;;3.20;;
65009;SDS011;51556;50.002;22.014;2023-02-01T14:06:34;9.30;;;3.20;;
65009;SDS011;51556;50.002;22.014;2023-02-01T14:11:43;6.20;;;2.90;;
65009;SDS011;51556;50.002;22.014;2023-02-01T14:19:20;11.50;;;3.50;;
65009;SDS011;51556;50.002;22.014;2023-02-01T14:24:25;7.40;;;2.40;;
65009;SDS011;51556;50.002;22.014;2023-02-01T14:26:51;7.90;;;3.40;;
65009;SDS011;51556;50.002;22.014;2023-02-01T14:29:32;9.10;;;3.40;;
65009;SDS011;51556;50.002;22.014;2023-02-01T14:32:11;7.80;;;3.40;;
65009;SDS011;51556;50.002;22.014;2023-02-01T15:06:50;6.20;;;2.60;;
65009;SDS011;51556;50.002;22.014;2023-02-01T15:09:20;8.50;;;2.60;;
65009;SDS011;51556;50.002;22.014;2023-02-01T15:14:30;9.30;;;3.20;;
65009;SDS011;51556;50.002;22.014;2023-02-01T15:16:58;8.40;;;3.00;;
65009;SDS011;51556;50.002;22.014;2023-02-01T15:19:24;8.80;;;3.00;;
65009;SDS011;51556;50.002;22.014;2023-02-01T15:21:52;9.20;;;3.30;;
65009;SDS011;51556;50.002;22.014;2023-02-01T15:24:21;10.30;;;3.80;;
65009;SDS011;51556;50.002;22.014;2023-02-01T15:26:49;10.50;;;4.00;;
65009;SDS011;51556;50.002;22.014;2023-02-01T15:29:16;11.60;;;4.50;;
65009;SDS011;51556;50.002;22.014;2023-02-01T15:31:43;13.70;;;5.50;;
65009;SDS011;51556;50.002;22.014;2023-02-01T15:36:39;17.50;;;5.10;;
65009;SDS011;51556;50.002;22.014;2023-02-01T15:41:53;16.30;;;6.50;;
65009;SDS011;51556;50.002;22.014;2023-02-01T15:44:34;19.30;;;7.20;;
65009;SDS011;51556;50.002;22.014;2023-02-01T15:47:10;14.30;;;6.40;;
65009;SDS011;51556;50.002;22.014;2023-02-01T15:49:41;20.30;;;7.60;;
65009;SDS011;51556;50.002;22.014;2023-02-01T15:55:03;18.90;;;7.20;;
65009;SDS011;51556;50.002;22.014;2023-02-01T15:58:01;13.40;;;5.50;;
65009;SDS011;51556;50.002;22.014;2023-02-01T16:00:45;18.60;;;7.20;;
65009;SDS011;51556;50.002;22.014;2023-02-01T16:03:34;23.70;;;8.20;;
65009;SDS011;51556;50.002;22.014;2023-02-01T16:06:10;17.90;;;7.80;;
65009;SDS011;51556;50.002;22.014;2023-02-01T16:09:00;16.20;;;6.90;;
65009;SDS011;51556;50.002;22.014;2023-02-01T16:11:32;21.70;;;10.60;;
65009;SDS011;51556;50.002;22.014;2023-02-01T16:14:14;15.60;;;7.50;;
65009;SDS011;51556;50.002;22.014;2023-02-01T16:16:42;25.60;;;11.20;;
65009;SDS011;51556;50.002;22.014;2023-02-01T16:19:08;32.60;;;14.50;;
65009;SDS011;51556;50.002;22.014;2023-02-01T16:21:34;35.40;;;15.00;;
65009;SDS011;51556;50.002;22.014;2023-02-01T16:24:00;26.40;;;11.30;;
65009;SDS011;51556;50.002;22.014;2023-02-01T16:26:29;24.80;;;11.20;;
65009;SDS011;51556;50.002;22.014;2023-02-01T16:28:56;27.90;;;12.10;;
65009;SDS011;51556;50.002;22.014;2023-02-01T16:31:25;25.40;;;10.60;;
65009;SDS011;51556;50.002;22.014;2023-02-01T16:33:54;18.20;;;7.20;;
65009;SDS011;51556;50.002;22.014;2023-02-01T16:36:20;11.00;;;5.20;;
65009;SDS011;51556;50.002;22.014;2023-02-01T16:38:46;13.30;;;5.80;;
65009;SDS011;51556;50.002;22.014;2023-02-01T16:41:14;14.50;;;6.60;;
65009;SDS011;51556;50.002;22.014;2023-02-01T16:43:43;12.10;;;6.00;;
65009;SDS011;51556;50.002;22.014;2023-02-01T16:46:15;11.20;;;5.40;;
65009;SDS011;51556;50.002;22.014;2023-02-01T16:48:45;13.90;;;6.30;;
65009;SDS011;51556;50.002;22.014;2023-02-01T16:51:16;16.60;;;7.20;;
65009;SDS011;51556;50.002;22.014;2023-02-01T16:53:42;13.20;;;6.40;;
65009;SDS011;51556;50.002;22.014;2023-02-01T16:56:18;19.70;;;9.40;;
65009;SDS011;51556;50.002;22.014;2023-02-01T16:58:53;31.90;;;11.10;;
65009;SDS011;51556;50.002;22.014;2023-02-01T17:01:19;18.60;;;9.40;;
65009;SDS011;51556;50.002;22.014;2023-02-01T17:03:45;20.70;;;9.60;;
65009;SDS011;51556;50.002;22.014;2023-02-01T17:06:12;20.70;;;9.80;;
65009;SDS011;51556;50.002;22.014;2023-02-01T17:08:44;22.50;;;9.30;;
65009;SDS011;51556;50.002;22.014;2023-02-01T17:11:13;20.80;;;9.10;;
65009;SDS011;51556;50.002;22.014;2023-02-01T17:13:39;25.30;;;10.50;;
65009;SDS011;51556;50.002;22.014;2023-02-01T17:16:20;20.20;;;10.10;;
65009;SDS011;51556;50.002;22.014;2023-02-01T17:21:19;20.30;;;7.90;;
65009;SDS011;51556;50.002;22.014;2023-02-01T17:23:45;16.70;;;6.90;;
65009;SDS011;51556;50.002;22.014;2023-02-01T17:26:10;11.00;;;6.20;;
65009;SDS011;51556;50.002;22.014;2023-02-01T17:28:36;16.00;;;6.70;;
65009;SDS011;51556;50.002;22.014;2023-02-01T17:31:02;13.00;;;5.80;;
65009;SDS011;51556;50.002;22.014;2023-02-01T17:33:33;13.00;;;6.40;;
65009;SDS011;51556;50.002;22.014;2023-02-01T17:36:00;15.50;;;6.80;;
65009;SDS011;51556;50.002;22.014;2023-02-01T17:38:26;14.90;;;6.30;;
65009;SDS011;51556;50.002;22.014;2023-02-01T17:40:52;14.60;;;6.20;;
65009;SDS011;51556;50.002;22.014;2023-02-01T17:43:21;16.10;;;6.90;;
65009;SDS011;51556;50.002;22.014;2023-02-01T17:45:59;13.00;;;5.70;;
65009;SDS011;51556;50.002;22.014;2023-02-01T17:48:28;20.60;;;9.00;;
65009;SDS011;51556;50.002;22.014;2023-02-01T17:50:54;22.80;;;9.70;;
65009;SDS011;51556;50.002;22.014;2023-02-01T17:53:23;18.10;;;8.50;;
65009;SDS011;51556;50.002;22.014;2023-02-01T17:55:52;17.80;;;8.70;;
65009;SDS011;51556;50.002;22.014;2023-02-01T17:58:18;16.60;;;9.20;;
65009;SDS011;51556;50.002;22.014;2023-02-01T18:00:46;13.20;;;7.70;;
65009;SDS011;51556;50.002;22.014;2023-02-01T18:03:25;16.00;;;8.70;;